Time;durP1;ratioP1;P1;durP2;ratioP2;P2;SDS_P1;SDS_P2;PMS_P1;PMS_P2;Temp;Humidity;BMP_temperature;BMP_pressure;BME280_temperature;BME280_humidity;BME280_pressure;Samples;Min_cycle;Max_cycle;Signal;HPM_P1;HPM_P2
2021/07/26 00:00:49;;;;;;;5.62;3.75;;;;;;;;;;4205285;34;20122;-67
2021/07/26 00:03:15;;;;;;;8.38;4.22;;;;;;;;;;4192420;34;20132;-67
2021/07/26 00:05:41;;;;;;;5.95;3.65;;;;;;;;;;4205371;34;20117;-67
2021/07/26 00:08:07;;;;;;;11.30;3.97;;;;;;;;;;4205379;34;20121;-68
2021/07/26 00:10:35;;;;;;;6.18;3.67;;;;;;;;;;4205327;34;20552;-67
2021/07/26 00:13:01;;;;;;;9.60;3.60;;;;;;;;;;4205338;34;20159;-67
2021/07/26 00:15:29;;;;;;;10.88;4.60;;;;;;;;;;4204919;34;20117;-67
2021/07/26 00:17:55;;;;;;;8.45;3.80;;;;;;;;;;4205462;34;20426;-67
2021/07/26 00:20:21;;;;;;;9.40;4.32;;;;;;;;;;4205552;34;20599;-67
2021/07/26 00:22:48;;;;;;;12.25;4.18;;;;;;;;;;4204926;34;20221;-67
2021/07/26 00:25:14;;;;;;;4.93;3.40;;;;;;;;;;4205294;34;20110;-67
2021/07/26 00:27:40;;;;;;;16.08;4.22;;;;;;;;;;4205215;34;20544;-67
2021/07/26 00:30:06;;;;;;;9.63;4.55;;;;;;;;;;4205658;34;20487;-68
2021/07/26 00:32:34;;;;;;;7.62;4.25;;;;;;;;;;4205382;34;20114;-67
2021/07/26 00:35:00;;;;;;;13.65;4.22;;;;;;;;;;4205362;34;20113;-67
2021/07/26 00:37:27;;;;;;;5.00;3.42;;;;;;;;;;4204922;34;20257;-67
2021/07/26 00:39:53;;;;;;;7.90;4.07;;;;;;;;;;4192548;34;20273;-67
2021/07/26 00:42:20;;;;;;;5.68;3.60;;;;;;;;;;4192254;34;20234;-67
2021/07/26 00:44:46;;;;;;;7.20;3.20;;;;;;;;;;4205081;34;20546;-67
2021/07/26 00:47:12;;;;;;;12.20;4.20;;;;;;;;;;4199011;34;20112;-67
2021/07/26 00:49:38;;;;;;;8.38;3.35;;;;;;;;;;4191094;34;20117;-67
2021/07/26 00:52:04;;;;;;;12.68;4.07;;;;;;;;;;4178333;34;20126;-67
2021/07/26 00:54:37;;;;;;;8.95;3.75;;;;;;;;;;4191167;34;20713;-67
2021/07/26 00:57:04;;;;;;;13.68;4.03;;;;;;;;;;4191035;34;20137;-67
2021/07/26 00:59:30;;;;;;;7.68;3.72;;;;;;;;;;4191493;34;20231;-67
2021/07/26 01:01:56;;;;;;;8.85;4.55;;;;;;;;;;4190979;34;20134;-67
2021/07/26 01:04:22;;;;;;;11.85;4.00;;;;;;;;;;4190942;34;20194;-68
2021/07/26 01:06:48;;;;;;;9.32;4.12;;;;;;;;;;4190917;34;20113;-67
2021/07/26 01:09:14;;;;;;;12.10;4.60;;;;;;;;;;4190984;34;20133;-67
2021/07/26 01:11:41;;;;;;;12.45;3.62;;;;;;;;;;4178249;34;20425;-67
2021/07/26 01:14:07;;;;;;;12.15;3.85;;;;;;;;;;4178427;34;20110;-68
2021/07/26 01:16:33;;;;;;;11.18;4.75;;;;;;;;;;4190900;34;20137;-67
2021/07/26 01:19:01;;;;;;;14.95;4.57;;;;;;;;;;4191231;34;20560;-68
2021/07/26 01:21:28;;;;;;;6.37;4.00;;;;;;;;;;4178480;34;20126;-67
2021/07/26 01:23:54;;;;;;;11.10;3.75;;;;;;;;;;4190741;34;20110;-67
2021/07/26 01:26:22;;;;;;;7.78;3.70;;;;;;;;;;4190190;34;20117;-67
2021/07/26 01:28:51;;;;;;;6.20;3.72;;;;;;;;;;4190789;34;20122;-67
2021/07/26 01:31:17;;;;;;;7.62;3.60;;;;;;;;;;4190662;34;20094;-67
2021/07/26 01:33:44;;;;;;;7.32;3.35;;;;;;;;;;4190797;34;20194;-67
2021/07/26 01:36:10;;;;;;;10.90;4.65;;;;;;;;;;4190939;34;20125;-67
2021/07/26 01:38:36;;;;;;;7.12;3.25;;;;;;;;;;4190653;34;20137;-67
2021/07/26 01:41:04;;;;;;;7.72;3.37;;;;;;;;;;4190659;34;20475;-67
2021/07/26 01:43:33;;;;;;;10.82;4.43;;;;;;;;;;4190648;34;20450;-67
2021/07/26 01:46:36;;;;;;;7.62;3.50;;;;;;;;;;4178057;34;20125;-67
2021/07/26 01:49:21;;;;;;;14.57;4.00;;;;;;;;;;4200904;34;20148;-67
2021/07/26 01:51:48;;;;;;;7.07;3.62;;;;;;;;;;4204724;34;20118;-67
2021/07/26 01:54:14;;;;;;;8.93;3.72;;;;;;;;;;4191654;34;20106;-67
2021/07/26 01:56:40;;;;;;;7.07;4.28;;;;;;;;;;4191633;34;20121;-67
2021/07/26 01:59:06;;;;;;;4.70;3.47;;;;;;;;;;4204277;34;20601;-68
2021/07/26 02:01:32;;;;;;;18.98;5.70;;;;;;;;;;4191386;34;20116;-66
2021/07/26 02:03:58;;;;;;;7.40;3.92;;;;;;;;;;4204269;34;20219;-67
2021/07/26 02:06:25;;;;;;;8.55;4.20;;;;;;;;;;4204167;34;20213;-67
2021/07/26 02:08:51;;;;;;;10.65;4.68;;;;;;;;;;4204164;34;20128;-67
2021/07/26 02:11:21;;;;;;;9.00;4.87;;;;;;;;;;4204321;34;20114;-68
2021/07/26 02:13:51;;;;;;;7.45;4.05;;;;;;;;;;4191717;34;20109;-68
2021/07/26 02:16:17;;;;;;;13.57;4.10;;;;;;;;;;4204034;34;20117;-67
2021/07/26 02:18:43;;;;;;;12.02;4.78;;;;;;;;;;4204059;34;20113;-67
2021/07/26 02:21:08;;;;;;;12.65;4.97;;;;;;;;;;4204059;34;20206;-67
2021/07/26 02:23:34;;;;;;;16.10;4.70;;;;;;;;;;4192045;34;20114;-69
2021/07/26 02:26:00;;;;;;;10.02;4.75;;;;;;;;;;4190291;34;20613;-69
2021/07/26 02:28:26;;;;;;;7.87;4.65;;;;;;;;;;4190244;34;20133;-69
2021/07/26 02:30:52;;;;;;;13.10;4.85;;;;;;;;;;4190193;34;20537;-68
2021/07/26 02:33:18;;;;;;;9.73;4.78;;;;;;;;;;4190169;34;20222;-69
2021/07/26 02:35:43;;;;;;;12.25;4.07;;;;;;;;;;4190215;34;20221;-68
2021/07/26 02:38:19;;;;;;;9.52;4.82;;;;;;;;;;4191148;34;20097;-67
2021/07/26 02:41:24;;;;;;;17.77;6.37;;;;;;;;;;4191857;34;20145;-67
2021/07/26 02:43:56;;;;;;;16.67;5.22;;;;;;;;;;4169846;34;20110;-66
2021/07/26 02:46:22;;;;;;;19.12;5.75;;;;;;;;;;4192241;34;20217;-64
2021/07/26 02:48:48;;;;;;;12.63;4.70;;;;;;;;;;4192387;34;20225;-67
2021/07/26 02:51:14;;;;;;;12.73;5.28;;;;;;;;;;4191993;34;20098;-67
2021/07/26 02:53:41;;;;;;;14.43;4.90;;;;;;;;;;4192089;34;20141;-66
2021/07/26 02:56:08;;;;;;;11.05;5.00;;;;;;;;;;4191947;34;20125;-68
2021/07/26 02:58:34;;;;;;;15.38;4.53;;;;;;;;;;4192123;34;20094;-67
2021/07/26 03:01:00;;;;;;;14.18;4.70;;;;;;;;;;4191919;34;20130;-68
2021/07/26 03:03:26;;;;;;;9.60;5.30;;;;;;;;;;4192013;34;20144;-68
2021/07/26 03:05:51;;;;;;;14.27;4.50;;;;;;;;;;4191994;34;20141;-66
2021/07/26 03:08:17;;;;;;;9.80;4.85;;;;;;;;;;4192069;34;20141;-67
2021/07/26 03:10:43;;;;;;;10.63;4.90;;;;;;;;;;4190143;34;20624;-67
2021/07/26 03:13:09;;;;;;;18.33;4.60;;;;;;;;;;4190017;34;20107;-66
2021/07/26 03:15:36;;;;;;;13.13;4.70;;;;;;;;;;4190163;34;20542;-66
2021/07/26 03:18:02;;;;;;;9.32;4.75;;;;;;;;;;4190259;34;20202;-67
2021/07/26 03:20:28;;;;;;;16.65;4.87;;;;;;;;;;4190800;34;20099;-67
2021/07/26 03:23:10;;;;;;;18.42;5.30;;;;;;;;;;4190618;34;20149;-67
2021/07/26 03:25:38;;;;;;;13.05;4.20;;;;;;;;;;4191332;34;20216;-66
2021/07/26 03:28:04;;;;;;;13.43;4.20;;;;;;;;;;4191727;34;20118;-67
2021/07/26 03:30:30;;;;;;;5.80;2.97;;;;;;;;;;4192070;34;20235;-67
2021/07/26 03:32:56;;;;;;;7.85;3.55;;;;;;;;;;4191667;34;20114;-67
2021/07/26 03:35:22;;;;;;;6.65;3.55;;;;;;;;;;4191840;34;20525;-66
2021/07/26 03:37:49;;;;;;;8.75;3.00;;;;;;;;;;4191941;34;20533;-66
2021/07/26 03:40:15;;;;;;;3.58;2.78;;;;;;;;;;4192139;34;20136;-66
2021/07/26 03:42:41;;;;;;;3.65;2.35;;;;;;;;;;4204419;34;20202;-66
2021/07/26 03:45:08;;;;;;;5.22;2.70;;;;;;;;;;4205852;34;20514;-66
2021/07/26 03:47:34;;;;;;;3.92;2.65;;;;;;;;;;4192749;34;20141;-66
2021/07/26 03:49:59;;;;;;;8.00;3.40;;;;;;;;;;4192222;34;20195;-65
2021/07/26 03:52:25;;;;;;;4.28;2.70;;;;;;;;;;4205550;34;20093;-65
2021/07/26 03:54:55;;;;;;;5.30;2.42;;;;;;;;;;4205799;34;20407;-65
2021/07/26 03:57:21;;;;;;;6.47;2.85;;;;;;;;;;4181486;34;20113;-66
2021/07/26 03:59:47;;;;;;;6.85;2.42;;;;;;;;;;4205441;34;20121;-66
2021/07/26 04:02:13;;;;;;;6.87;3.37;;;;;;;;;;4205681;34;20141;-65
2021/07/26 04:04:38;;;;;;;4.90;2.60;;;;;;;;;;4205367;34;20132;-66
2021/07/26 04:07:10;;;;;;;9.88;2.78;;;;;;;;;;4205312;34;20090;-66
2021/07/26 04:09:43;;;;;;;6.85;2.65;;;;;;;;;;4193137;34;20118;-66
2021/07/26 04:12:11;;;;;;;3.87;2.35;;;;;;;;;;4192707;34;20133;-66
2021/07/26 04:14:40;;;;;;;4.80;2.50;;;;;;;;;;4205159;34;20113;-66
2021/07/26 04:17:06;;;;;;;5.37;2.80;;;;;;;;;;4191378;34;20133;-66
2021/07/26 04:19:32;;;;;;;4.65;2.37;;;;;;;;;;4178840;34;20130;-66
2021/07/26 04:21:58;;;;;;;5.53;2.28;;;;;;;;;;4178322;34;20141;-66
2021/07/26 04:24:25;;;;;;;3.17;2.10;;;;;;;;;;4191474;34;20136;-65
2021/07/26 04:26:51;;;;;;;5.37;2.75;;;;;;;;;;4191320;34;20133;-65
2021/07/26 04:29:17;;;;;;;8.82;2.90;;;;;;;;;;4178669;34;20535;-65
2021/07/26 04:31:43;;;;;;;6.25;2.35;;;;;;;;;;4191109;34;20130;-65
2021/07/26 04:34:10;;;;;;;5.95;2.40;;;;;;;;;;4178784;34;20153;-65
2021/07/26 04:36:35;;;;;;;5.72;2.30;;;;;;;;;;4191296;34;20556;-65
2021/07/26 04:39:01;;;;;;;11.30;2.85;;;;;;;;;;4178376;34;20126;-66
2021/07/26 04:41:27;;;;;;;4.50;2.60;;;;;;;;;;4191341;34;20116;-66
2021/07/26 04:43:53;;;;;;;9.57;2.80;;;;;;;;;;4203702;34;20117;-65
2021/07/26 04:46:19;;;;;;;9.15;3.17;;;;;;;;;;4205146;34;20109;-65
2021/07/26 04:48:45;;;;;;;4.65;2.20;;;;;;;;;;4204963;34;20460;-66
2021/07/26 04:51:10;;;;;;;6.03;2.33;;;;;;;;;;4204991;34;20120;-68
2021/07/26 04:53:36;;;;;;;4.00;2.90;;;;;;;;;;4205073;34;20180;-67
2021/07/26 04:56:02;;;;;;;3.10;2.17;;;;;;;;;;4204839;34;20224;-68
2021/07/26 04:58:28;;;;;;;2.90;2.20;;;;;;;;;;4204906;34;20536;-67
2021/07/26 05:00:54;;;;;;;3.35;2.62;;;;;;;;;;4204547;34;20213;-66
2021/07/26 05:03:20;;;;;;;2.90;1.92;;;;;;;;;;4204888;34;20141;-66
2021/07/26 05:05:46;;;;;;;3.55;2.12;;;;;;;;;;4204783;34;20121;-67
2021/07/26 05:08:11;;;;;;;4.68;1.90;;;;;;;;;;4205057;34;20213;-68
2021/07/26 05:10:37;;;;;;;4.12;2.33;;;;;;;;;;4205070;34;20132;-68
2021/07/26 05:13:03;;;;;;;4.57;2.40;;;;;;;;;;4204872;34;20133;-67
2021/07/26 05:15:29;;;;;;;4.47;2.70;;;;;;;;;;4204832;34;20281;-67
2021/07/26 05:17:55;;;;;;;4.80;2.10;;;;;;;;;;4204598;34;20130;-67
2021/07/26 05:20:21;;;;;;;3.20;2.03;;;;;;;;;;4204743;34;20125;-67
2021/07/26 05:22:47;;;;;;;4.40;1.75;;;;;;;;;;4204791;34;20101;-67
2021/07/26 05:25:13;;;;;;;3.95;2.10;;;;;;;;;;4204786;34;20161;-67
2021/07/26 05:27:39;;;;;;;2.97;1.90;;;;;;;;;;4204660;34;20113;-66
2021/07/26 05:30:05;;;;;;;3.33;2.08;;;;;;;;;;4198165;34;20117;-67
2021/07/26 05:32:31;;;;;;;2.33;2.03;;;;;;;;;;4190808;34;20469;-66
2021/07/26 05:34:57;;;;;;;2.00;1.90;;;;;;;;;;4189524;34;20126;-67
2021/07/26 05:37:22;;;;;;;7.53;2.53;;;;;;;;;;4190711;34;20529;-67
2021/07/26 05:39:48;;;;;;;3.17;2.10;;;;;;;;;;4189571;34;20153;-67
2021/07/26 05:42:14;;;;;;;8.13;2.08;;;;;;;;;;4192537;34;20178;-67
2021/07/26 05:44:41;;;;;;;4.00;1.67;;;;;;;;;;4204504;34;20466;-67
2021/07/26 05:47:07;;;;;;;3.17;1.77;;;;;;;;;;4204523;34;20429;-68
2021/07/26 05:49:33;;;;;;;1.90;1.80;;;;;;;;;;4204535;34;20096;-67
2021/07/26 05:51:59;;;;;;;2.33;1.90;;;;;;;;;;4204540;34;20177;-67
2021/07/26 05:54:25;;;;;;;3.17;1.80;;;;;;;;;;4204531;34;20129;-67
2021/07/26 05:56:51;;;;;;;2.20;2.00;;;;;;;;;;4204367;34;20106;-67
2021/07/26 05:59:17;;;;;;;5.07;1.95;;;;;;;;;;4204473;34;20205;-68
2021/07/26 06:01:49;;;;;;;3.35;2.00;;;;;;;;;;4204483;34;20101;-67
2021/07/26 06:04:16;;;;;;;3.78;1.65;;;;;;;;;;4204372;34;20121;-67
2021/07/26 06:06:54;;;;;;;3.05;2.17;;;;;;;;;;4204184;34;20118;-68
2021/07/26 06:09:23;;;;;;;6.00;2.08;;;;;;;;;;4204703;34;20573;-67
2021/07/26 06:11:49;;;;;;;3.97;2.45;;;;;;;;;;4204032;34;20128;-66
2021/07/26 06:14:15;;;;;;;2.15;1.90;;;;;;;;;;4205852;34;20114;-67
2021/07/26 06:16:42;;;;;;;8.98;2.83;;;;;;;;;;4206469;34;20114;-67
2021/07/26 06:19:09;;;;;;;4.75;2.37;;;;;;;;;;4193679;34;20531;-67
2021/07/26 06:21:52;;;;;;;5.25;2.35;;;;;;;;;;4193596;34;20129;-67
2021/07/26 06:24:20;;;;;;;4.80;2.85;;;;;;;;;;4206540;34;20128;-67
2021/07/26 06:26:46;;;;;;;9.00;2.50;;;;;;;;;;4193576;34;20106;-68
2021/07/26 06:29:12;;;;;;;2.85;2.25;;;;;;;;;;4193391;34;20125;-68
2021/07/26 06:31:39;;;;;;;4.20;2.65;;;;;;;;;;4206316;34;20453;-67
2021/07/26 06:34:05;;;;;;;2.67;2.20;;;;;;;;;;4206182;34;20121;-67
2021/07/26 06:36:31;;;;;;;3.33;2.10;;;;;;;;;;4193044;34;20469;-66
2021/07/26 06:38:57;;;;;;;2.97;2.40;;;;;;;;;;4206037;34;20138;-66
2021/07/26 06:41:23;;;;;;;3.90;2.22;;;;;;;;;;4206250;34;20132;-66
2021/07/26 06:43:58;;;;;;;3.62;2.17;;;;;;;;;;4205856;34;20129;-66
2021/07/26 06:46:25;;;;;;;4.45;1.95;;;;;;;;;;4193501;34;20213;-66
2021/07/26 06:48:51;;;;;;;3.45;2.28;;;;;;;;;;4206295;34;20121;-66
2021/07/26 06:51:16;;;;;;;3.35;1.98;;;;;;;;;;4206205;34;20652;-66
2021/07/26 06:53:42;;;;;;;4.87;2.22;;;;;;;;;;4206231;34;20533;-66
2021/07/26 06:56:09;;;;;;;3.00;2.22;;;;;;;;;;4205893;34;20095;-66
2021/07/26 06:58:35;;;;;;;3.08;2.12;;;;;;;;;;4205958;34;20545;-65
2021/07/26 07:01:10;;;;;;;1.70;1.48;;;;;;;;;;4205873;34;20216;-66
2021/07/26 07:03:36;;;;;;;2.83;2.12;;;;;;;;;;4194213;34;20185;-66
2021/07/26 07:06:03;;;;;;;5.28;3.25;;;;;;;;;;4205593;34;20460;-66
2021/07/26 07:08:29;;;;;;;11.80;2.37;;;;;;;;;;4206072;34;20108;-65
2021/07/26 07:11:25;;;;;;;2.33;2.00;;;;;;;;;;4205686;34;20117;-65
2021/07/26 07:13:51;;;;;;;3.87;2.30;;;;;;;;;;4184468;34;20136;-66
2021/07/26 07:16:18;;;;;;;2.53;2.00;;;;;;;;;;4206114;34;20197;-67
2021/07/26 07:18:50;;;;;;;5.82;2.05;;;;;;;;;;4193101;34;20188;-66
2021/07/26 07:21:20;;;;;;;3.92;2.30;;;;;;;;;;4205912;34;20121;-66
2021/07/26 07:23:46;;;;;;;5.10;2.10;;;;;;;;;;4205740;34;20121;-66
2021/07/26 07:26:12;;;;;;;3.97;2.10;;;;;;;;;;4204760;34;20119;-66
2021/07/26 07:28:39;;;;;;;2.55;1.80;;;;;;;;;;4205752;34;20185;-67
2021/07/26 07:31:04;;;;;;;9.13;2.00;;;;;;;;;;4205538;34;20098;-66
2021/07/26 07:33:30;;;;;;;5.10;2.10;;;;;;;;;;4192839;34;20521;-66
2021/07/26 07:36:00;;;;;;;4.28;2.10;;;;;;;;;;4192656;34;20481;-66
2021/07/26 07:38:27;;;;;;;3.35;2.20;;;;;;;;;;4192845;34;20599;-65
2021/07/26 07:40:53;;;;;;;2.65;1.73;;;;;;;;;;4205414;34;20098;-66
2021/07/26 07:43:19;;;;;;;2.87;1.65;;;;;;;;;;4193043;34;20521;-65
2021/07/26 07:45:45;;;;;;;3.92;2.42;;;;;;;;;;4192826;34;20602;-66
2021/07/26 07:48:11;;;;;;;8.27;2.85;;;;;;;;;;4205539;34;20125;-65
2021/07/26 07:50:37;;;;;;;4.57;2.15;;;;;;;;;;4205621;34;20102;-66
2021/07/26 07:53:03;;;;;;;6.07;2.17;;;;;;;;;;4205440;34;20704;-65
2021/07/26 07:55:29;;;;;;;5.28;2.00;;;;;;;;;;4205497;34;20548;-66
2021/07/26 07:57:55;;;;;;;2.12;1.65;;;;;;;;;;4205470;34;20544;-65
2021/07/26 08:00:22;;;;;;;4.20;1.58;;;;;;;;;;4205402;34;20106;-66
2021/07/26 08:02:48;;;;;;;6.50;2.03;;;;;;;;;;4205744;34;20596;-65
2021/07/26 08:05:16;;;;;;;3.40;1.52;;;;;;;;;;4205383;34;20114;-66
2021/07/26 08:07:42;;;;;;;6.78;2.35;;;;;;;;;;4205427;34;20117;-66
2021/07/26 08:10:08;;;;;;;3.33;1.75;;;;;;;;;;4205374;34;20113;-66
2021/07/26 08:12:33;;;;;;;2.95;2.30;;;;;;;;;;4205459;34;20510;-66
2021/07/26 08:14:59;;;;;;;2.05;1.85;;;;;;;;;;4205265;34;20537;-66
2021/07/26 08:17:25;;;;;;;2.60;1.83;;;;;;;;;;4205385;34;20553;-66
2021/07/26 08:19:51;;;;;;;1.98;1.77;;;;;;;;;;4205317;34;20122;-66
2021/07/26 08:22:17;;;;;;;2.12;1.58;;;;;;;;;;4205144;34;20205;-67
2021/07/26 08:24:43;;;;;;;2.25;1.70;;;;;;;;;;4205213;34;20129;-66
2021/07/26 08:27:09;;;;;;;1.70;1.60;;;;;;;;;;4192252;34;20118;-66
2021/07/26 08:29:35;;;;;;;2.37;1.70;;;;;;;;;;4205201;34;20134;-66
2021/07/26 08:32:01;;;;;;;1.75;1.55;;;;;;;;;;4205076;34;20109;-66
2021/07/26 08:34:27;;;;;;;1.77;1.62;;;;;;;;;;4205117;34;20125;-66
2021/07/26 08:36:55;;;;;;;2.00;1.77;;;;;;;;;;4204637;34;20640;-66
2021/07/26 08:39:21;;;;;;;7.00;1.50;;;;;;;;;;4192273;34;20113;-66
2021/07/26 08:41:47;;;;;;;1.60;1.50;;;;;;;;;;4204939;34;20114;-66
2021/07/26 08:44:13;;;;;;;2.35;1.60;;;;;;;;;;4192225;34;20433;-65
2021/07/26 08:46:41;;;;;;;5.18;1.65;;;;;;;;;;4192203;34;20525;-65
2021/07/26 08:49:07;;;;;;;2.05;1.60;;;;;;;;;;4192564;34;20110;-66
2021/07/26 08:51:33;;;;;;;2.17;1.90;;;;;;;;;;4192016;34;20128;-66
2021/07/26 08:53:59;;;;;;;2.17;1.65;;;;;;;;;;4192093;34;20117;-65
2021/07/26 08:56:25;;;;;;;1.60;1.50;;;;;;;;;;4192201;34;20225;-66
2021/07/26 08:58:51;;;;;;;1.60;1.50;;;;;;;;;;4204929;34;20213;-66
2021/07/26 09:01:17;;;;;;;2.30;1.87;;;;;;;;;;4192104;34;20209;-66
2021/07/26 09:03:44;;;;;;;4.97;1.80;;;;;;;;;;4205021;34;20122;-66
2021/07/26 09:06:10;;;;;;;1.87;1.60;;;;;;;;;;4204557;34;20133;-66
2021/07/26 09:08:37;;;;;;;1.98;1.70;;;;;;;;;;4204857;34;20457;-66
2021/07/26 09:11:04;;;;;;;2.00;1.58;;;;;;;;;;4205117;34;20309;-66
2021/07/26 09:13:42;;;;;;;1.83;1.50;;;;;;;;;;4204960;34;20121;-66
2021/07/26 09:16:14;;;;;;;1.35;1.25;;;;;;;;;;4204817;34;20496;-66
2021/07/26 09:18:41;;;;;;;2.85;1.80;;;;;;;;;;4204711;34;20546;-67
2021/07/26 09:21:07;;;;;;;2.17;1.85;;;;;;;;;;4204678;34;20113;-66
2021/07/26 09:23:36;;;;;;;7.20;1.80;;;;;;;;;;4204362;34;20120;-66
2021/07/26 09:26:03;;;;;;;2.17;1.77;;;;;;;;;;4180475;34;20172;-66
2021/07/26 09:28:31;;;;;;;2.45;1.58;;;;;;;;;;4180322;34;20114;-66
2021/07/26 09:30:57;;;;;;;3.78;2.67;;;;;;;;;;4204304;34;20133;-67
2021/07/26 09:33:23;;;;;;;3.33;1.70;;;;;;;;;;4204321;34;20485;-66
2021/07/26 09:36:08;;;;;;;2.83;1.80;;;;;;;;;;4204157;34;20136;-66
2021/07/26 09:38:35;;;;;;;2.33;1.50;;;;;;;;;;4204299;34;20201;-67
2021/07/26 09:41:02;;;;;;;1.80;1.70;;;;;;;;;;4191648;34;20589;-66
2021/07/26 09:43:28;;;;;;;3.40;1.60;;;;;;;;;;4191639;34;20205;-66
2021/07/26 09:45:55;;;;;;;3.33;1.70;;;;;;;;;;4204410;34;20129;-67
2021/07/26 09:48:29;;;;;;;2.25;1.60;;;;;;;;;;4203618;34;20113;-66
2021/07/26 09:50:55;;;;;;;1.90;1.70;;;;;;;;;;4204307;34;20120;-67
2021/07/26 09:53:26;;;;;;;3.33;1.60;;;;;;;;;;4191572;34;20528;-66
2021/07/26 09:55:58;;;;;;;6.72;2.15;;;;;;;;;;4204169;34;20117;-66
2021/07/26 09:58:35;;;;;;;2.90;1.80;;;;;;;;;;4191263;34;20184;-66
2021/07/26 10:01:01;;;;;;;2.10;1.90;;;;;;;;;;4204044;34;20539;-66
2021/07/26 10:03:27;;;;;;;2.53;1.90;;;;;;;;;;4191300;34;20571;-66
2021/07/26 10:05:53;;;;;;;3.62;1.80;;;;;;;;;;4191065;34;20165;-66
2021/07/26 10:08:19;;;;;;;3.03;2.72;;;;;;;;;;4191412;34;20363;-66
2021/07/26 10:10:45;;;;;;;3.47;2.30;;;;;;;;;;4179601;34;20109;-67
2021/07/26 10:13:11;;;;;;;4.72;2.28;;;;;;;;;;4191819;34;20186;-66
2021/07/26 10:15:37;;;;;;;2.45;2.03;;;;;;;;;;4204067;34;20109;-67
2021/07/26 10:18:03;;;;;;;1.60;1.50;;;;;;;;;;4204053;34;20106;-67
2021/07/26 10:20:37;;;;;;;4.47;1.80;;;;;;;;;;4204272;34;20106;-67
2021/07/26 10:23:07;;;;;;;2.47;1.62;;;;;;;;;;4190859;34;20663;-66
2021/07/26 10:25:38;;;;;;;2.42;2.22;;;;;;;;;;4191237;34;20441;-67
2021/07/26 10:28:09;;;;;;;2.12;1.80;;;;;;;;;;4190890;34;20172;-66
2021/07/26 10:30:36;;;;;;;1.98;1.80;;;;;;;;;;4190853;34;20205;-65
2021/07/26 10:33:05;;;;;;;1.70;1.60;;;;;;;;;;4203588;34;20642;-66
2021/07/26 10:35:35;;;;;;;2.65;1.73;;;;;;;;;;4190887;34;20278;-66
2021/07/26 10:38:02;;;;;;;2.80;1.58;;;;;;;;;;4203503;34;20193;-66
2021/07/26 10:40:29;;;;;;;1.75;1.60;;;;;;;;;;4203842;34;20137;-66
2021/07/26 10:43:00;;;;;;;2.65;1.87;;;;;;;;;;4204006;34;20122;-66
2021/07/26 10:45:33;;;;;;;2.85;1.75;;;;;;;;;;4180312;34;20094;-67
2021/07/26 10:48:21;;;;;;;4.47;1.70;;;;;;;;;;4203574;34;20113;-66
2021/07/26 10:50:50;;;;;;;1.80;1.70;;;;;;;;;;4203545;34;20125;-66
2021/07/26 10:53:54;;;;;;;3.87;2.08;;;;;;;;;;4190756;34;20178;-65
2021/07/26 10:56:20;;;;;;;3.03;2.03;;;;;;;;;;4196685;34;20113;-66
2021/07/26 10:58:46;;;;;;;2.87;1.92;;;;;;;;;;4190724;34;20568;-66
2021/07/26 11:01:25;;;;;;;5.57;4.15;;;;;;;;;;4205655;34;20450;-66
2021/07/26 11:03:55;;;;;;;4.05;2.12;;;;;;;;;;4205635;34;20106;-66
2021/07/26 11:06:37;;;;;;;4.12;2.25;;;;;;;;;;4205568;34;20113;-66
2021/07/26 11:09:20;;;;;;;4.45;2.12;;;;;;;;;;4205901;34;20434;-66
2021/07/26 11:11:47;;;;;;;4.43;1.90;;;;;;;;;;4205511;34;20461;-66
2021/07/26 11:14:14;;;;;;;7.18;2.58;;;;;;;;;;4205574;34;20478;-66
2021/07/26 11:16:50;;;;;;;4.50;2.15;;;;;;;;;;4205346;34;20606;-67
2021/07/26 11:19:41;;;;;;;4.40;2.28;;;;;;;;;;4205214;34;20552;-67
2021/07/26 11:22:17;;;;;;;6.22;2.67;;;;;;;;;;4205445;34;20152;-67
2021/07/26 11:24:55;;;;;;;6.10;2.70;;;;;;;;;;4205456;34;20101;-66
2021/07/26 11:27:21;;;;;;;2.33;1.90;;;;;;;;;;4205702;34;20196;-67
2021/07/26 11:29:52;;;;;;;4.28;2.90;;;;;;;;;;4205376;34;20521;-66
2021/07/26 11:32:19;;;;;;;5.43;2.40;;;;;;;;;;4205745;34;20442;-66
2021/07/26 11:34:45;;;;;;;2.72;2.00;;;;;;;;;;4192506;34;20216;-66
2021/07/26 11:37:17;;;;;;;2.80;1.90;;;;;;;;;;4205754;34;20117;-66
2021/07/26 11:39:53;;;;;;;2.53;2.12;;;;;;;;;;4205398;34;20145;-65
2021/07/26 11:42:35;;;;;;;2.83;2.10;;;;;;;;;;4205373;34;20514;-65
2021/07/26 11:45:02;;;;;;;3.40;2.20;;;;;;;;;;4205585;34;20474;-65
2021/07/26 11:47:40;;;;;;;2.90;2.22;;;;;;;;;;4205402;34;20126;-65
2021/07/26 11:50:15;;;;;;;2.28;1.98;;;;;;;;;;4193015;34;20431;-71
2021/07/26 11:52:53;;;;;;;2.47;1.90;;;;;;;;;;4205637;34;20114;-66
2021/07/26 11:55:19;;;;;;;6.53;1.75;;;;;;;;;;4192675;34;20129;-66
2021/07/26 11:57:58;;;;;;;1.85;1.70;;;;;;;;;;4205501;34;20441;-66
2021/07/26 12:00:26;;;;;;;3.17;1.60;;;;;;;;;;4205772;34;20508;-67
2021/07/26 12:02:51;;;;;;;3.15;1.85;;;;;;;;;;4192704;34;20093;-67
2021/07/26 12:05:18;;;;;;;3.17;1.70;;;;;;;;;;4205536;34;20141;-67
2021/07/26 12:07:45;;;;;;;5.65;1.92;;;;;;;;;;4192660;34;20117;-67
2021/07/26 12:10:13;;;;;;;1.77;1.62;;;;;;;;;;4205688;34;20132;-66
2021/07/26 12:12:45;;;;;;;3.25;1.85;;;;;;;;;;4192527;34;20464;-66
2021/07/26 12:15:28;;;;;;;2.70;2.00;;;;;;;;;;4193037;34;20544;-65
2021/07/26 12:18:14;;;;;;;4.35;1.70;;;;;;;;;;4192858;34;20104;-64
2021/07/26 12:20:44;;;;;;;2.47;1.77;;;;;;;;;;4192787;34;20580;-67
2021/07/26 12:23:20;;;;;;;2.10;1.60;;;;;;;;;;4205337;34;20137;-66
2021/07/26 12:25:49;;;;;;;2.22;1.92;;;;;;;;;;4205556;34;20121;-65
2021/07/26 12:28:16;;;;;;;3.42;1.90;;;;;;;;;;4205425;34;20102;-66
2021/07/26 12:30:50;;;;;;;3.25;2.00;;;;;;;;;;4205375;34;20131;-67
2021/07/26 12:33:30;;;;;;;4.18;2.28;;;;;;;;;;4192675;34;20125;-67
2021/07/26 12:36:15;;;;;;;2.33;1.90;;;;;;;;;;4205431;34;20221;-65
2021/07/26 12:38:42;;;;;;;1.70;1.45;;;;;;;;;;4205465;34;20125;-66
2021/07/26 12:41:10;;;;;;;2.47;1.70;;;;;;;;;;4202844;34;20449;-67
2021/07/26 12:43:37;;;;;;;2.10;1.85;;;;;;;;;;4192690;34;20109;-66
2021/07/26 12:46:07;;;;;;;3.03;1.80;;;;;;;;;;4205082;34;20204;-67
2021/07/26 12:48:33;;;;;;;2.67;1.98;;;;;;;;;;4205232;34;20520;-65
2021/07/26 12:51:01;;;;;;;2.20;1.70;;;;;;;;;;4204965;34;20209;-64
2021/07/26 12:53:27;;;;;;;3.65;2.00;;;;;;;;;;4205317;34;20106;-66
2021/07/26 12:55:54;;;;;;;2.00;1.80;;;;;;;;;;4192251;34;20090;-65
2021/07/26 12:58:20;;;;;;;2.47;1.70;;;;;;;;;;4192235;34;20189;-65
2021/07/26 13:00:47;;;;;;;1.98;1.77;;;;;;;;;;4205250;34;20133;-66
2021/07/26 13:03:15;;;;;;;3.42;1.87;;;;;;;;;;4192290;34;20505;-64
2021/07/26 13:05:42;;;;;;;1.92;1.70;;;;;;;;;;4204997;34;20508;-66
2021/07/26 13:08:08;;;;;;;3.92;2.00;;;;;;;;;;4205176;34;20125;-65
2021/07/26 13:10:37;;;;;;;1.80;1.70;;;;;;;;;;4192381;34;20118;-66
2021/07/26 13:13:14;;;;;;;3.60;1.90;;;;;;;;;;4204756;34;20145;-65
2021/07/26 13:15:41;;;;;;;2.25;1.65;;;;;;;;;;4204945;34;20160;-66
2021/07/26 13:18:08;;;;;;;2.15;1.90;;;;;;;;;;4204669;34;20161;-66
2021/07/26 13:20:34;;;;;;;3.10;1.62;;;;;;;;;;4205114;34;20102;-66
2021/07/26 13:23:00;;;;;;;1.98;1.87;;;;;;;;;;4191741;34;20531;-66
2021/07/26 13:25:27;;;;;;;1.75;1.65;;;;;;;;;;4192049;34;20712;-64
2021/07/26 13:27:53;;;;;;;2.53;1.92;;;;;;;;;;4191790;34;20539;-65
2021/07/26 13:30:19;;;;;;;12.48;2.17;;;;;;;;;;4192132;34;20121;-66
2021/07/26 13:32:45;;;;;;;4.25;1.85;;;;;;;;;;4192050;34;20097;-67
2021/07/26 13:35:11;;;;;;;2.62;1.58;;;;;;;;;;4191815;34;20556;-65
2021/07/26 13:37:37;;;;;;;4.03;1.98;;;;;;;;;;4192097;34;20213;-67
2021/07/26 13:40:03;;;;;;;4.37;1.83;;;;;;;;;;4191881;34;20149;-66
2021/07/26 13:42:31;;;;;;;8.65;2.15;;;;;;;;;;4204539;34;20098;-66
2021/07/26 13:44:59;;;;;;;3.42;1.70;;;;;;;;;;4204688;34;20106;-67
2021/07/26 13:47:25;;;;;;;2.10;1.70;;;;;;;;;;4204523;34;20555;-66
2021/07/26 13:49:51;;;;;;;2.65;1.87;;;;;;;;;;4191519;34;20236;-66
2021/07/26 13:52:17;;;;;;;1.73;1.40;;;;;;;;;;4204665;34;20117;-66
2021/07/26 13:54:43;;;;;;;2.67;1.80;;;;;;;;;;4204486;34;20552;-67
2021/07/26 13:57:09;;;;;;;3.80;1.92;;;;;;;;;;4191527;34;20118;-66
2021/07/26 13:59:35;;;;;;;2.20;1.92;;;;;;;;;;4204379;34;20117;-67
2021/07/26 14:02:01;;;;;;;6.05;1.70;;;;;;;;;;4204107;34;20117;-67
2021/07/26 14:04:27;;;;;;;2.50;2.05;;;;;;;;;;4191511;34;20442;-66
2021/07/26 14:06:53;;;;;;;2.45;1.80;;;;;;;;;;4191292;34;20128;-67
2021/07/26 14:09:19;;;;;;;2.25;1.80;;;;;;;;;;4204137;34;20109;-67
2021/07/26 14:11:45;;;;;;;2.75;1.83;;;;;;;;;;4204087;34;20094;-66
2021/07/26 14:14:11;;;;;;;5.03;2.67;;;;;;;;;;4204155;34;20105;-67
2021/07/26 14:16:38;;;;;;;3.70;2.47;;;;;;;;;;4203947;34;20117;-67
2021/07/26 14:19:04;;;;;;;4.80;2.20;;;;;;;;;;4203991;34;20137;-70
2021/07/26 14:21:30;;;;;;;4.75;2.35;;;;;;;;;;4191011;34;20120;-66
2021/07/26 14:23:56;;;;;;;5.97;2.00;;;;;;;;;;4204011;34;20109;-67
2021/07/26 14:26:24;;;;;;;3.65;2.05;;;;;;;;;;4191354;34;20113;-67
2021/07/26 14:28:50;;;;;;;3.60;2.22;;;;;;;;;;4204175;34;20118;-67
2021/07/26 14:31:16;;;;;;;2.37;2.17;;;;;;;;;;4204096;34;20497;-67
2021/07/26 14:33:42;;;;;;;6.72;2.30;;;;;;;;;;4204312;34;20434;-66
2021/07/26 14:36:08;;;;;;;4.00;2.45;;;;;;;;;;4206760;34;20133;-66
2021/07/26 14:38:34;;;;;;;2.15;1.92;;;;;;;;;;4193471;34;20137;-66
2021/07/26 14:40:59;;;;;;;2.30;1.90;;;;;;;;;;4192949;34;20142;-66
2021/07/26 14:43:25;;;;;;;2.80;2.20;;;;;;;;;;4206045;34;20116;-66
2021/07/26 14:45:51;;;;;;;4.32;2.20;;;;;;;;;;4205863;34;20246;-66